createdAt,value
2023-03-15T00:02:26.615Z,4.47
2023-03-15T00:04:55.530Z,3.70
2023-03-15T00:08:13.326Z,1.73
2023-03-15T00:10:43.679Z,3.17
2023-03-15T00:13:18.609Z,2.70
2023-03-15T00:15:52.054Z,2.03
2023-03-15T00:18:23.537Z,2.53
2023-03-15T00:20:52.454Z,1.47
2023-03-15T00:23:21.522Z,2.43
2023-03-15T00:25:53.380Z,1.63
2023-03-15T00:28:22.807Z,2.30
2023-03-15T00:31:06.178Z,1.60
2023-03-15T00:33:36.876Z,3.30
2023-03-15T00:36:13.477Z,1.60
2023-03-15T00:38:46.590Z,1.87
2023-03-15T00:44:26.786Z,2.37
2023-03-15T00:46:55.858Z,1.63
2023-03-15T00:49:51.505Z,2.80
2023-03-15T00:52:57.637Z,4.73
2023-03-15T00:55:28.668Z,3.10
2023-03-15T00:57:59.131Z,1.43
2023-03-15T01:00:30.642Z,3.40
2023-03-15T01:02:59.874Z,3.10
2023-03-15T06:53:46.711Z,5.73
2023-03-15T06:56:47.110Z,6.70
2023-03-15T07:00:34.072Z,3.90
2023-03-15T07:03:50.455Z,6.47
2023-03-15T07:13:53.672Z,5.00
2023-03-15T07:16:56.798Z,4.30
2023-03-15T07:22:48.012Z,5.43
2023-03-15T07:25:55.100Z,4.03
2023-03-15T07:28:25.770Z,5.27
2023-03-15T07:30:56.767Z,4.97
2023-03-15T07:33:29.759Z,3.30
2023-03-15T07:35:59.232Z,4.67
2023-03-15T07:38:30.792Z,2.73
2023-03-15T07:41:04.515Z,3.13
2023-03-15T07:46:35.840Z,4.67
2023-03-15T07:49:05.096Z,6.63
2023-03-15T07:51:33.544Z,3.97
2023-03-15T07:54:02.770Z,3.57
2023-03-15T07:56:32.921Z,5.17
2023-03-15T07:59:01.970Z,4.87
2023-03-15T08:01:30.685Z,2.60
2023-03-15T08:04:00.855Z,2.90
2023-03-15T08:06:29.703Z,3.53
2023-03-15T08:08:58.503Z,4.57
2023-03-15T08:11:27.567Z,7.20
2023-03-15T08:13:58.300Z,2.90
2023-03-15T08:16:27.259Z,3.27
2023-03-15T08:18:56.872Z,4.07
2023-03-15T08:21:25.445Z,5.37
2023-03-15T08:23:54.080Z,1.53
2023-03-15T08:26:23.169Z,4.63
2023-03-15T08:28:52.063Z,4.53
2023-03-15T08:31:23.742Z,3.37
2023-03-15T08:33:52.890Z,5.40
2023-03-15T08:36:22.310Z,3.30
2023-03-15T08:38:51.298Z,4.07
2023-03-15T08:41:20.174Z,6.07
2023-03-15T08:43:48.681Z,4.40
2023-03-15T08:46:17.756Z,6.57
2023-03-15T08:48:47.588Z,4.33
2023-03-15T08:51:16.023Z,2.33
2023-03-15T08:53:44.543Z,3.90
2023-03-15T08:56:14.427Z,2.23
2023-03-15T08:58:42.883Z,7.57
2023-03-15T09:01:13.193Z,6.13
2023-03-15T09:03:43.151Z,5.07
2023-03-15T09:06:13.712Z,4.03
2023-03-15T09:08:42.657Z,3.57
2023-03-15T09:11:11.497Z,2.40
2023-03-15T09:13:39.973Z,4.00
2023-03-15T09:16:09.808Z,2.30
2023-03-15T09:18:40.779Z,2.43
2023-03-15T09:21:09.577Z,3.13
2023-03-15T09:23:42.480Z,3.23
2023-03-15T09:26:11.339Z,2.63
2023-03-15T09:28:39.587Z,3.10
2023-03-15T09:31:09.358Z,2.00
2023-03-15T09:33:38.280Z,3.23
2023-03-15T09:36:07.697Z,1.63
2023-03-15T09:38:37.478Z,2.47
2023-03-15T09:41:17.565Z,4.50
2023-03-15T09:44:21.297Z,1.97
2023-03-15T09:47:09.430Z,4.10
2023-03-15T09:49:48.878Z,3.73
2023-03-15T09:52:40.280Z,4.17
2023-03-15T09:55:18.799Z,4.47
2023-03-15T09:57:54.715Z,3.17
2023-03-15T10:00:29.564Z,3.73
2023-03-15T10:03:09.979Z,3.70
2023-03-15T10:05:44.430Z,2.10
2023-03-15T10:08:15.782Z,2.07
2023-03-15T10:10:53.320Z,1.20
2023-03-15T10:13:52.459Z,2.90
2023-03-15T10:16:37.579Z,2.60
2023-03-15T10:19:19.343Z,1.80
2023-03-15T10:22:03.087Z,3.33
2023-03-15T10:24:42.529Z,2.57
2023-03-15T10:27:22.292Z,2.87
2023-03-15T10:29:57.905Z,2.30
2023-03-15T10:32:39.009Z,1.83
2023-03-15T10:35:16.268Z,2.53
2023-03-15T10:37:46.812Z,3.30
2023-03-15T10:40:19.755Z,2.00
2023-03-15T10:42:49.439Z,3.37
2023-03-15T10:45:25.765Z,1.80
2023-03-15T10:48:00.816Z,2.80
2023-03-15T10:50:35.600Z,1.57
2023-03-15T10:53:11.949Z,2.10
2023-03-15T10:55:47.173Z,2.00
2023-03-15T10:58:28.447Z,2.53
2023-03-15T11:01:07.744Z,1.73
2023-03-15T11:03:40.299Z,2.03
2023-03-15T11:06:30.290Z,2.57
2023-03-15T11:09:12.155Z,4.43
2023-03-15T11:12:01.762Z,2.87
2023-03-15T11:14:39.263Z,1.63
2023-03-15T11:17:23.860Z,2.70
2023-03-15T11:20:00.306Z,2.30
2023-03-15T11:22:32.915Z,1.97
2023-03-15T11:25:03.140Z,2.10
2023-03-15T11:27:33.239Z,3.60
2023-03-15T11:30:06.006Z,2.03
2023-03-15T11:32:38.230Z,2.60
2023-03-15T11:35:13.675Z,1.93
2023-03-15T11:37:49.624Z,1.77
2023-03-15T11:40:26.537Z,3.07
2023-03-15T11:43:03.971Z,1.60
2023-03-15T11:45:40.622Z,2.50
2023-03-15T11:48:41.279Z,3.60
2023-03-15T11:51:14.592Z,7.20
2023-03-15T11:53:50.275Z,0.93
2023-03-15T11:56:26.917Z,1.60
2023-03-15T11:59:11.189Z,2.27
2023-03-15T12:01:44.923Z,1.30
2023-03-15T12:04:44.853Z,3.40
2023-03-15T12:07:36.178Z,2.63
2023-03-15T12:10:35.711Z,3.10
2023-03-15T12:13:24.082Z,7.03
2023-03-15T12:15:56.376Z,7.57
2023-03-15T12:18:34.892Z,2.43
2023-03-15T12:21:35.908Z,6.63
2023-03-15T12:24:10.072Z,3.67
2023-03-15T12:26:48.620Z,1.57
2023-03-15T12:29:27.653Z,2.50
2023-03-15T12:32:13.213Z,2.83
2023-03-15T12:34:51.310Z,3.60
2023-03-15T12:37:27.490Z,3.43
2023-03-15T12:40:25.662Z,1.87
2023-03-15T12:43:15.135Z,5.40
2023-03-15T12:45:49.949Z,3.17
2023-03-15T12:48:28.626Z,2.10
2023-03-15T12:51:06.362Z,3.07
2023-03-15T12:53:47.643Z,1.53
2023-03-15T12:56:33.821Z,2.67
2023-03-15T12:59:14.401Z,1.70
2023-03-15T13:01:45.078Z,0.90
2023-03-15T13:04:15.608Z,1.90
2023-03-15T13:07:04.153Z,1.30
2023-03-15T13:10:01.216Z,1.90
2023-03-15T13:12:42.634Z,3.30
2023-03-15T13:15:21.783Z,2.77
2023-03-15T13:17:57.991Z,6.27
2023-03-15T13:20:59.373Z,3.73
2023-03-15T13:23:31.967Z,3.10
2023-03-15T13:26:19.458Z,2.30
2023-03-15T13:28:56.158Z,2.43
2023-03-15T13:31:31.442Z,2.37
2023-03-15T13:34:16.510Z,3.43
2023-03-15T13:36:52.293Z,5.23
2023-03-15T13:39:27.061Z,2.93
2023-03-15T13:42:04.801Z,5.00
2023-03-15T13:44:39.076Z,3.57
2023-03-15T13:47:11.329Z,3.00
2023-03-15T13:49:43.691Z,3.40
2023-03-15T13:52:20.896Z,11.00
2023-03-15T13:54:54.177Z,2.50
2023-03-15T13:57:26.244Z,3.17
2023-03-15T14:00:03.340Z,3.23
2023-03-15T14:02:45.924Z,6.17
2023-03-15T14:05:28.105Z,4.27
2023-03-15T14:08:03.073Z,2.27
2023-03-15T14:10:34.947Z,3.93
2023-03-15T14:13:26.424Z,3.10
2023-03-15T14:16:02.171Z,4.03
2023-03-15T14:18:38.688Z,3.50
2023-03-15T14:21:15.012Z,4.07
2023-03-15T14:23:47.626Z,4.93
2023-03-15T14:26:21.819Z,4.40
2023-03-15T14:29:02.208Z,2.57
2023-03-15T14:31:48.295Z,3.27
2023-03-15T14:34:33.967Z,2.57
2023-03-15T14:37:10.401Z,2.70
2023-03-15T14:39:42.847Z,2.10
2023-03-15T14:42:13.244Z,2.83
2023-03-15T14:44:42.875Z,1.30
2023-03-15T14:47:17.825Z,2.53
2023-03-15T14:49:48.447Z,1.33
2023-03-15T14:52:17.775Z,1.93
2023-03-15T14:54:53.707Z,2.20
2023-03-15T14:57:25.527Z,2.70
2023-03-15T15:00:01.672Z,4.27
2023-03-15T15:02:34.369Z,2.50
2023-03-15T15:05:05.487Z,1.93
2023-03-15T15:07:35.018Z,1.37
2023-03-15T15:10:05.734Z,1.57
2023-03-15T15:12:35.007Z,1.73
2023-03-15T15:15:17.100Z,2.13
2023-03-15T15:17:45.842Z,1.40
2023-03-15T15:20:17.036Z,4.60
2023-03-15T15:22:46.194Z,3.90
2023-03-15T15:25:18.549Z,4.03
2023-03-15T15:27:49.021Z,8.87
2023-03-15T15:30:24.149Z,5.93
2023-03-15T15:32:54.631Z,6.27
2023-03-15T15:35:24.107Z,5.70
2023-03-15T15:37:55.101Z,5.10
2023-03-15T15:40:29.288Z,4.40
2023-03-15T15:42:58.595Z,5.63
2023-03-15T15:45:30.524Z,6.60
2023-03-15T15:47:58.998Z,5.10
2023-03-15T15:50:27.821Z,13.30
2023-03-15T15:52:57.914Z,3.87
2023-03-15T15:55:31.968Z,6.37
2023-03-15T15:58:03.123Z,9.23
2023-03-15T16:00:34.663Z,9.00
2023-03-15T16:03:06.141Z,4.53
2023-03-15T16:05:38.105Z,5.87
2023-03-15T16:08:08.625Z,5.37
2023-03-15T16:10:37.491Z,8.23
2023-03-15T16:13:07.242Z,5.53
2023-03-15T16:15:37.490Z,3.60
2023-03-15T16:18:12.177Z,2.10
2023-03-15T16:20:42.508Z,5.53
2023-03-15T16:23:20.444Z,5.13
2023-03-15T16:25:54.404Z,6.43
2023-03-15T16:28:24.370Z,5.73
2023-03-15T16:30:56.337Z,5.20
2023-03-15T16:33:25.299Z,7.37
2023-03-15T16:35:54.301Z,6.03
2023-03-15T16:38:29.686Z,6.53
2023-03-15T16:40:59.531Z,4.10
2023-03-15T16:43:29.413Z,4.50
2023-03-15T16:45:59.825Z,2.73
2023-03-15T16:48:29.199Z,2.80
2023-03-15T16:50:58.897Z,3.10
2023-03-15T16:53:27.528Z,3.97
2023-03-15T16:55:56.497Z,3.63
2023-03-15T16:58:25.545Z,4.80
2023-03-15T17:00:54.302Z,7.73
2023-03-15T17:03:24.589Z,7.43
2023-03-15T17:05:53.026Z,7.83
2023-03-15T17:08:23.280Z,7.63
2023-03-15T17:10:52.110Z,9.27
2023-03-15T17:13:27.979Z,7.10
2023-03-15T17:15:57.263Z,8.87
2023-03-15T17:18:30.115Z,10.57
2023-03-15T17:20:59.467Z,5.47
2023-03-15T17:23:27.930Z,10.17
2023-03-15T17:25:57.180Z,8.13
2023-03-15T17:28:25.816Z,4.30
2023-03-15T17:31:14.126Z,5.40
2023-03-15T17:33:49.211Z,16.10
2023-03-15T17:36:23.550Z,7.13
2023-03-15T17:38:53.057Z,7.00
2023-03-15T17:41:25.671Z,5.73
2023-03-15T17:43:54.047Z,5.17
2023-03-15T17:46:30.133Z,4.90
2023-03-15T17:49:02.971Z,5.53
2023-03-15T17:51:35.753Z,5.87
2023-03-15T17:54:13.850Z,5.07
2023-03-15T17:56:42.993Z,6.87
2023-03-15T17:59:13.356Z,3.60
2023-03-15T18:01:45.940Z,5.30
2023-03-15T18:04:17.721Z,6.17
2023-03-15T18:06:46.141Z,5.73
2023-03-15T18:09:16.155Z,6.60
2023-03-15T18:11:46.887Z,6.53
2023-03-15T18:14:19.139Z,6.00
2023-03-15T18:16:48.277Z,6.43
2023-03-15T18:19:18.961Z,8.80
2023-03-15T18:21:47.316Z,7.47
2023-03-15T18:24:16.122Z,7.23
2023-03-15T18:26:44.494Z,6.10
2023-03-15T18:29:13.373Z,3.17
2023-03-15T18:31:43.548Z,5.67
2023-03-15T18:34:15.759Z,11.50
2023-03-15T18:36:45.751Z,11.97
2023-03-15T18:39:14.258Z,14.33
2023-03-15T18:41:43.130Z,21.90
2023-03-15T18:44:12.341Z,29.07
2023-03-15T18:46:43.967Z,26.87
2023-03-15T18:49:12.813Z,14.93
2023-03-15T18:51:41.570Z,11.87
2023-03-15T18:54:11.330Z,15.00
2023-03-15T18:56:39.768Z,19.30
2023-03-15T18:59:09.195Z,21.53
2023-03-15T19:01:38.489Z,35.90
2023-03-15T19:04:08.693Z,48.57
2023-03-15T19:06:37.533Z,31.67
2023-03-15T19:09:05.931Z,17.13
2023-03-15T19:11:41.973Z,15.87
2023-03-15T19:14:11.699Z,16.80
2023-03-15T19:16:40.559Z,20.67
2023-03-15T19:19:09.068Z,16.00
2023-03-15T19:21:39.124Z,7.00
2023-03-15T19:24:08.478Z,6.27
2023-03-15T19:26:38.742Z,13.40
2023-03-15T19:29:07.414Z,19.03
2023-03-15T19:31:36.168Z,16.60
2023-03-15T19:34:04.910Z,19.17
2023-03-15T19:36:33.427Z,20.50
2023-03-15T19:39:03.773Z,17.60
2023-03-15T19:41:34.539Z,15.37
2023-03-15T19:44:05.407Z,12.57
2023-03-15T19:46:34.297Z,16.60
2023-03-15T20:01:18.873Z,14.30
2023-03-15T20:03:47.758Z,10.97
2023-03-15T20:06:17.640Z,18.27
2023-03-15T20:08:47.036Z,14.30
2023-03-15T20:11:20.435Z,12.10
2023-03-15T20:13:49.329Z,10.13
2023-03-15T20:16:41.531Z,9.57
2023-03-15T20:19:10.530Z,10.60
2023-03-15T20:21:39.580Z,9.03
2023-03-15T20:24:09.610Z,10.17
2023-03-15T20:26:38.398Z,11.70
2023-03-15T20:29:07.493Z,13.23
2023-03-15T20:31:36.454Z,12.87
2023-03-15T20:34:09.317Z,12.23
2023-03-15T20:36:37.830Z,12.50
2023-03-15T20:39:06.771Z,11.80
2023-03-15T20:41:35.634Z,13.33
2023-03-15T20:44:04.450Z,6.97
2023-03-15T20:46:49.494Z,5.83
2023-03-15T20:49:19.997Z,6.37
2023-03-15T20:51:51.921Z,6.80
2023-03-15T20:54:21.033Z,6.23
2023-03-15T20:56:49.637Z,5.07
2023-03-15T20:59:18.403Z,5.40
2023-03-15T21:01:47.257Z,9.90
2023-03-15T21:04:16.495Z,4.77
2023-03-15T21:06:50.768Z,6.30
2023-03-15T21:09:20.929Z,3.70
2023-03-15T21:11:50.897Z,4.90
2023-03-15T21:14:24.594Z,4.67
2023-03-15T21:16:54.592Z,5.03
2023-03-15T21:20:23.469Z,4.90
2023-03-15T21:22:54.831Z,4.37
2023-03-15T21:25:24.673Z,4.20
2023-03-15T21:27:53.326Z,4.67
2023-03-15T21:30:23.845Z,7.87
2023-03-15T21:32:56.700Z,6.97
2023-03-15T21:35:26.103Z,6.97
2023-03-15T21:38:14.494Z,7.00
2023-03-15T21:41:00.727Z,4.67
2023-03-15T21:43:33.390Z,4.23
2023-03-15T21:46:03.764Z,4.27
2023-03-15T21:48:33.982Z,4.43
2023-03-15T21:51:04.406Z,5.50
2023-03-15T21:53:53.760Z,3.87
2023-03-15T21:56:26.452Z,7.43
2023-03-15T21:59:02.436Z,4.23
2023-03-15T22:01:31.957Z,4.00
2023-03-15T22:04:08.023Z,4.13
2023-03-15T22:06:36.827Z,4.80
2023-03-15T22:09:07.541Z,5.47
2023-03-15T22:11:36.277Z,11.87
2023-03-15T22:14:04.803Z,8.47
2023-03-15T22:16:35.257Z,6.73
2023-03-15T22:19:15.644Z,5.60
2023-03-15T22:21:47.009Z,4.53
2023-03-15T22:49:40.470Z,5.70
2023-03-15T23:35:31.912Z,1.50
2023-03-15T23:39:15.153Z,8.73
2023-03-15T23:42:09.757Z,19.37
2023-03-15T23:44:41.402Z,6.13
2023-03-15T23:47:42.954Z,2.20
2023-03-15T23:51:11.294Z,3.13
2023-03-15T23:53:42.640Z,8.10
